createdAt,value
2023-04-17T14:16:34.770Z,6.00
2023-04-17T14:19:12.626Z,6.93
2023-04-17T14:21:43.782Z,6.57
2023-04-17T14:24:11.420Z,6.20
2023-04-17T14:26:39.464Z,6.07
2023-04-17T14:29:07.102Z,6.40
2023-04-17T14:31:35.223Z,6.07
2023-04-17T14:34:02.862Z,5.93
2023-04-17T14:36:31.147Z,6.17
2023-04-17T14:39:00.282Z,5.83
2023-04-17T14:41:29.983Z,5.77
2023-04-17T14:43:57.696Z,5.47
2023-04-17T14:46:25.406Z,5.70
2023-04-17T14:48:56.119Z,5.83
2023-04-17T14:51:24.073Z,5.47
2023-04-17T14:53:53.014Z,4.83
2023-04-17T14:56:22.524Z,5.93
2023-04-17T14:58:50.125Z,6.03
2023-04-17T15:01:17.862Z,5.30
2023-04-17T15:03:47.884Z,6.40
2023-04-17T15:06:16.593Z,5.27
2023-04-17T15:08:46.007Z,5.33
2023-04-17T15:11:13.715Z,5.60
2023-04-17T15:13:42.696Z,4.70
2023-04-17T15:16:11.044Z,5.97
2023-04-17T15:18:39.415Z,5.43
2023-04-17T15:21:07.465Z,5.00
2023-04-17T15:23:35.616Z,4.97
2023-04-17T15:26:03.253Z,4.90
2023-04-17T15:28:30.841Z,4.73
2023-04-17T15:30:59.846Z,4.70
2023-04-17T15:33:27.408Z,5.30
2023-04-17T15:35:56.216Z,5.30
2023-04-17T15:38:23.866Z,4.87
2023-04-17T15:40:51.684Z,4.83
2023-04-17T15:43:20.075Z,4.97
2023-04-17T15:45:49.602Z,4.93
2023-04-17T15:48:18.725Z,4.77
2023-04-17T15:50:46.358Z,5.00
2023-04-17T15:53:13.976Z,5.77
2023-04-17T15:55:41.657Z,4.70
2023-04-17T15:58:09.385Z,4.37
2023-04-17T16:00:37.059Z,4.33
2023-04-17T16:03:07.373Z,4.60
2023-04-17T16:05:36.533Z,4.37
2023-04-17T16:08:04.151Z,4.60
2023-04-17T16:10:31.801Z,4.07
2023-04-17T16:12:59.377Z,4.20
2023-04-17T16:15:27.239Z,4.43
2023-04-17T16:17:54.879Z,4.57
2023-04-17T16:20:22.493Z,4.20
2023-04-17T16:22:51.480Z,4.33
2023-04-17T16:25:20.754Z,4.90
2023-04-17T16:27:48.544Z,4.40
2023-04-17T16:30:16.324Z,4.07
2023-04-17T16:32:45.321Z,4.60
2023-04-17T16:35:13.008Z,3.97
2023-04-17T16:37:40.685Z,4.50
2023-04-17T16:40:11.591Z,4.13
2023-04-17T16:42:39.242Z,4.53
2023-04-17T16:45:07.967Z,4.53
2023-04-17T16:47:35.687Z,4.33
2023-04-17T16:50:03.654Z,4.47
2023-04-17T16:52:31.280Z,4.50
2023-04-17T16:54:59.423Z,4.40
2023-04-17T16:57:28.367Z,4.30
2023-04-17T16:59:55.969Z,4.97
2023-04-17T17:02:23.656Z,4.33
2023-04-17T17:04:51.417Z,4.60
2023-04-17T17:07:18.995Z,4.17
2023-04-17T17:09:46.570Z,4.30
2023-04-17T17:12:14.142Z,4.03
2023-04-17T17:14:43.163Z,5.30
2023-04-17T17:17:10.756Z,3.80
2023-04-17T17:19:38.422Z,4.27
2023-04-17T17:22:06.058Z,4.67
2023-04-17T17:24:33.620Z,3.70
2023-04-17T17:27:01.652Z,4.13
2023-04-17T17:29:29.354Z,4.77
2023-04-17T17:31:58.367Z,5.10
2023-04-17T17:34:27.004Z,4.20
2023-04-17T17:36:55.126Z,4.07
2023-04-17T17:39:22.803Z,4.10
2023-04-17T17:41:50.628Z,3.93
2023-04-17T17:44:18.370Z,3.83
2023-04-17T17:46:46.011Z,4.03
2023-04-17T17:49:14.968Z,3.77
2023-04-17T17:51:44.527Z,3.93
2023-04-17T17:54:12.458Z,3.33
2023-04-17T17:56:40.405Z,3.83
2023-04-17T17:59:08.030Z,3.80
2023-04-17T18:01:35.751Z,4.03
2023-04-17T18:04:03.605Z,3.90
2023-04-17T18:06:32.686Z,3.33
2023-04-17T18:09:00.453Z,3.40
2023-04-17T18:11:28.649Z,3.93
2023-04-17T18:13:56.235Z,3.60
2023-04-17T18:16:24.871Z,3.40
2023-04-17T18:18:52.634Z,4.00
2023-04-17T18:21:20.206Z,3.67
2023-04-17T18:23:49.117Z,3.53
2023-04-17T18:26:16.732Z,3.87
2023-04-17T18:28:44.337Z,3.83
2023-04-17T18:31:12.518Z,4.07
2023-04-17T18:33:40.209Z,3.83
2023-04-17T18:36:08.302Z,3.90
2023-04-17T18:38:36.171Z,3.57
2023-04-17T18:41:05.143Z,3.60
2023-04-17T18:43:32.737Z,3.70
2023-04-17T18:46:03.868Z,3.40
2023-04-17T18:48:32.074Z,4.00
2023-04-17T18:51:09.303Z,3.67
2023-04-17T18:53:36.919Z,3.77
2023-04-17T18:56:06.594Z,3.63
2023-04-17T18:58:34.155Z,3.90
2023-04-17T19:01:01.902Z,3.50
2023-04-17T19:03:29.548Z,4.07
2023-04-17T19:05:57.140Z,3.73
2023-04-17T19:08:24.890Z,3.40
2023-04-17T19:10:52.446Z,3.47
2023-04-17T19:13:21.503Z,3.80
2023-04-17T19:15:49.129Z,3.60
2023-04-17T19:18:16.714Z,3.47
2023-04-17T19:20:44.283Z,3.40
2023-04-17T19:23:11.917Z,3.37
2023-04-17T19:25:41.535Z,3.30
2023-04-17T19:28:10.803Z,3.70
2023-04-17T19:30:39.972Z,3.30
2023-04-17T19:33:07.716Z,3.57
2023-04-17T19:35:35.388Z,3.43
2023-04-17T19:38:03.243Z,3.53
2023-04-17T19:40:31.034Z,3.47
2023-04-17T19:43:01.277Z,4.23
2023-04-17T19:45:29.077Z,3.60
2023-04-17T19:47:58.123Z,3.57
2023-04-17T19:50:27.146Z,3.50
2023-04-17T19:52:55.558Z,4.20
2023-04-17T19:55:23.316Z,3.17
2023-04-17T19:57:52.133Z,3.40
2023-04-17T20:00:20.136Z,3.40
2023-04-17T20:02:48.034Z,3.43
2023-04-17T20:05:18.410Z,3.70
2023-04-17T20:07:46.063Z,3.67
2023-04-17T20:10:13.718Z,3.20
2023-04-17T20:12:41.333Z,3.17
2023-04-17T20:15:10.372Z,3.20
2023-04-17T20:17:38.022Z,3.33
2023-04-17T20:20:06.583Z,3.33
2023-04-17T20:22:35.837Z,3.50
2023-04-17T20:25:04.898Z,3.47
2023-04-17T20:27:33.010Z,3.13
2023-04-17T20:30:01.061Z,3.10
2023-04-17T20:32:28.660Z,3.90
2023-04-17T20:34:56.297Z,3.20
2023-04-17T20:37:24.078Z,3.37
2023-04-17T20:39:53.070Z,3.47
2023-04-17T20:42:20.697Z,3.60
2023-04-17T20:44:48.291Z,2.97
2023-04-17T20:47:15.913Z,3.23
2023-04-17T20:49:43.495Z,3.03
2023-04-17T20:52:11.119Z,2.90
2023-04-17T20:54:38.717Z,3.60
2023-04-17T20:57:07.671Z,3.47
2023-04-17T20:59:36.574Z,3.17
2023-04-17T21:02:04.478Z,3.37
2023-04-17T21:04:32.230Z,3.40
2023-04-17T21:07:00.068Z,3.40
2023-04-17T21:09:27.890Z,3.20
2023-04-17T21:11:55.827Z,3.37
2023-04-17T21:14:24.824Z,3.43
2023-04-17T21:16:54.848Z,3.30
2023-04-17T21:19:24.155Z,3.20
2023-04-17T21:21:51.778Z,3.10
2023-04-17T21:24:19.380Z,3.30
2023-04-17T21:26:46.980Z,3.20
2023-04-17T21:29:14.744Z,3.10
2023-04-17T21:31:43.868Z,3.17
2023-04-17T21:34:11.709Z,3.10
2023-04-17T21:36:39.555Z,3.30
2023-04-17T21:39:08.642Z,3.20
2023-04-17T21:41:36.272Z,3.43
2023-04-17T21:44:05.615Z,3.00
2023-04-17T21:46:33.338Z,3.20
2023-04-17T21:49:02.376Z,3.10
2023-04-17T21:51:29.947Z,2.93
2023-04-17T21:53:57.563Z,3.43
2023-04-17T21:56:25.222Z,3.30
2023-04-17T21:58:52.846Z,2.90
2023-04-17T22:01:20.528Z,3.20
2023-04-17T22:03:48.216Z,3.03
2023-04-17T22:06:17.166Z,3.20
2023-04-17T22:08:44.757Z,2.80
2023-04-17T22:11:12.805Z,3.03
2023-04-17T22:13:40.429Z,2.83
2023-04-17T22:16:08.063Z,3.00
2023-04-17T22:18:35.684Z,2.93
2023-04-17T22:21:03.595Z,3.00
2023-04-17T22:23:32.533Z,3.10
2023-04-17T22:26:00.725Z,2.83
2023-04-17T22:28:30.175Z,2.70
2023-04-17T22:30:57.861Z,2.53
2023-04-17T22:33:26.174Z,2.97
2023-04-17T22:35:53.853Z,2.97
2023-04-17T22:38:21.795Z,2.90
2023-04-17T22:40:50.723Z,3.10
2023-04-17T22:43:18.306Z,2.77
2023-04-17T22:45:46.069Z,2.53
2023-04-17T22:48:13.754Z,2.30
2023-04-17T22:50:41.393Z,2.77
2023-04-17T22:53:09.015Z,2.53
2023-04-17T22:55:37.086Z,2.70
2023-04-17T22:58:06.033Z,2.80
2023-04-17T23:00:33.690Z,2.53
2023-04-17T23:03:01.420Z,2.70
2023-04-17T23:05:29.390Z,2.90
2023-04-17T23:07:57.034Z,2.93
2023-04-17T23:10:24.616Z,2.70
2023-04-17T23:12:52.199Z,2.70
2023-04-17T23:15:21.226Z,2.60
2023-04-17T23:17:48.972Z,2.80
2023-04-17T23:20:16.772Z,2.70
2023-04-17T23:22:44.432Z,2.90
2023-04-17T23:25:12.345Z,2.57
2023-04-17T23:27:39.987Z,2.30
2023-04-17T23:30:08.841Z,2.67
2023-04-17T23:32:37.870Z,2.70
2023-04-17T23:35:06.383Z,2.50
2023-04-17T23:37:34.034Z,2.63
2023-04-17T23:40:01.984Z,2.93
2023-04-17T23:42:29.625Z,3.10
2023-04-17T23:44:57.294Z,2.77
2023-04-17T23:47:24.940Z,2.43
2023-04-17T23:49:54.320Z,2.90
2023-04-17T23:52:21.947Z,2.83
2023-04-17T23:54:49.606Z,2.43
2023-04-17T23:57:18.464Z,2.70
2023-04-17T23:59:46.224Z,2.93
